sensor_id;sensor_type;location;lat;lon;timestamp;temperature;humidity
42019;DHT22;27703;51.980;5.848;2023-01-01T00:01:06;15.80;99.90
42019;DHT22;27703;51.980;5.848;2023-01-01T00:03:32;15.90;99.90
42019;DHT22;27703;51.980;5.848;2023-01-01T00:05:58;15.80;99.90
42019;DHT22;27703;51.980;5.848;2023-01-01T00:08:24;15.80;99.90
42019;DHT22;27703;51.980;5.848;2023-01-01T00:10:49;15.80;99.90
42019;DHT22;27703;51.980;5.848;2023-01-01T00:13:15;15.80;99.90
42019;DHT22;27703;51.980;5.848;2023-01-01T00:15:40;15.80;99.90
42019;DHT22;27703;51.980;5.848;2023-01-01T00:18:06;15.90;99.90
42019;DHT22;27703;51.980;5.848;2023-01-01T00:20:31;15.90;99.90
42019;DHT22;27703;51.980;5.848;2023-01-01T00:22:57;15.90;99.90
42019;DHT22;27703;51.980;5.848;2023-01-01T00:25:23;15.80;99.90
42019;DHT22;27703;51.980;5.848;2023-01-01T00:27:49;15.90;99.90
42019;DHT22;27703;51.980;5.848;2023-01-01T00:30:15;15.90;99.90
42019;DHT22;27703;51.980;5.848;2023-01-01T00:32:40;15.90;99.90
42019;DHT22;27703;51.980;5.848;2023-01-01T00:35:06;15.90;99.90
42019;DHT22;27703;51.980;5.848;2023-01-01T00:37:32;15.90;99.90
42019;DHT22;27703;51.980;5.848;2023-01-01T00:39:58;15.90;99.90
42019;DHT22;27703;51.980;5.848;2023-01-01T00:42:24;15.90;99.90
42019;DHT22;27703;51.980;5.848;2023-01-01T00:44:50;15.90;99.90
42019;DHT22;27703;51.980;5.848;2023-01-01T00:47:15;15.90;99.90
42019;DHT22;27703;51.980;5.848;2023-01-01T00:49:41;15.80;99.90
42019;DHT22;27703;51.980;5.848;2023-01-01T00:52:06;15.70;99.90
42019;DHT22;27703;51.980;5.848;2023-01-01T00:54:32;15.80;99.90
42019;DHT22;27703;51.980;5.848;2023-01-01T00:56:57;15.70;99.90
42019;DHT22;27703;51.980;5.848;2023-01-01T00:59:23;15.70;99.90
42019;DHT22;27703;51.980;5.848;2023-01-01T01:01:48;15.70;99.90
42019;DHT22;27703;51.980;5.848;2023-01-01T01:04:14;15.70;99.90
42019;DHT22;27703;51.980;5.848;2023-01-01T01:06:39;15.70;99.90
42019;DHT22;27703;51.980;5.848;2023-01-01T01:09:05;15.60;99.90
42019;DHT22;27703;51.980;5.848;2023-01-01T01:11:31;15.50;99.90
42019;DHT22;27703;51.980;5.848;2023-01-01T01:13:57;15.50;99.90
42019;DHT22;27703;51.980;5.848;2023-01-01T01:16:28;15.50;99.90
42019;DHT22;27703;51.980;5.848;2023-01-01T01:18:57;15.50;99.90
42019;DHT22;27703;51.980;5.848;2023-01-01T01:21:25;15.50;99.90
42019;DHT22;27703;51.980;5.848;2023-01-01T01:23:52;15.50;99.90
42019;DHT22;27703;51.980;5.848;2023-01-01T01:26:23;15.60;99.90
42019;DHT22;27703;51.980;5.848;2023-01-01T01:28:51;15.50;99.90
42019;DHT22;27703;51.980;5.848;2023-01-01T01:31:18;15.50;99.90
42019;DHT22;27703;51.980;5.848;2023-01-01T01:33:44;15.50;99.90
42019;DHT22;27703;51.980;5.848;2023-01-01T01:36:10;15.50;99.90
42019;DHT22;27703;51.980;5.848;2023-01-01T01:38:36;15.40;99.90
42019;DHT22;27703;51.980;5.848;2023-01-01T01:41:02;15.40;99.90
42019;DHT22;27703;51.980;5.848;2023-01-01T01:46:00;15.40;99.90
42019;DHT22;27703;51.980;5.848;2023-01-01T01:48:27;15.40;99.90
42019;DHT22;27703;51.980;5.848;2023-01-01T01:50:53;15.30;99.90
42019;DHT22;27703;51.980;5.848;2023-01-01T01:53:29;15.30;99.90
42019;DHT22;27703;51.980;5.848;2023-01-01T01:55:59;15.30;99.90
42019;DHT22;27703;51.980;5.848;2023-01-01T01:58:27;15.20;99.90
42019;DHT22;27703;51.980;5.848;2023-01-01T02:00:54;15.20;99.90
42019;DHT22;27703;51.980;5.848;2023-01-01T02:03:24;15.20;99.90
42019;DHT22;27703;51.980;5.848;2023-01-01T02:05:51;15.30;99.90
42019;DHT22;27703;51.980;5.848;2023-01-01T02:08:18;15.30;99.90
42019;DHT22;27703;51.980;5.848;2023-01-01T02:10:44;15.30;99.90
42019;DHT22;27703;51.980;5.848;2023-01-01T02:13:10;15.30;99.90
42019;DHT22;27703;51.980;5.848;2023-01-01T02:18:20;15.30;99.90
42019;DHT22;27703;51.980;5.848;2023-01-01T02:20:51;15.30;99.90
42019;DHT22;27703;51.980;5.848;2023-01-01T02:31:26;15.20;99.90
42019;DHT22;27703;51.980;5.848;2023-01-01T02:33:55;15.20;99.90
42019;DHT22;27703;51.980;5.848;2023-01-01T02:36:24;15.20;99.90
42019;DHT22;27703;51.980;5.848;2023-01-01T02:38:54;15.20;99.90
42019;DHT22;27703;51.980;5.848;2023-01-01T02:41:25;15.20;99.90
42019;DHT22;27703;51.980;5.848;2023-01-01T02:43:52;15.20;99.90
42019;DHT22;27703;51.980;5.848;2023-01-01T02:46:18;15.20;99.90
42019;DHT22;27703;51.980;5.848;2023-01-01T02:48:46;15.20;99.90
42019;DHT22;27703;51.980;5.848;2023-01-01T03:05:02;15.20;99.90
42019;DHT22;27703;51.980;5.848;2023-01-01T03:10:19;15.30;99.90
42019;DHT22;27703;51.980;5.848;2023-01-01T03:13:09;15.30;99.90
42019;DHT22;27703;51.980;5.848;2023-01-01T03:15:58;15.30;99.90
42019;DHT22;27703;51.980;5.848;2023-01-01T03:22:02;15.20;99.90
42019;DHT22;27703;51.980;5.848;2023-01-01T03:24:39;15.20;99.90
42019;DHT22;27703;51.980;5.848;2023-01-01T03:29:40;15.10;99.90
42019;DHT22;27703;51.980;5.848;2023-01-01T03:32:09;15.10;99.90
42019;DHT22;27703;51.980;5.848;2023-01-01T03:34:42;15.10;99.90
42019;DHT22;27703;51.980;5.848;2023-01-01T03:37:11;15.10;99.90
42019;DHT22;27703;51.980;5.848;2023-01-01T03:39:46;15.10;99.90
42019;DHT22;27703;51.980;5.848;2023-01-01T03:42:34;15.00;99.90
42019;DHT22;27703;51.980;5.848;2023-01-01T03:45:19;15.00;99.90
42019;DHT22;27703;51.980;5.848;2023-01-01T03:47:47;15.10;99.90
42019;DHT22;27703;51.980;5.848;2023-01-01T03:50:13;15.10;99.90
42019;DHT22;27703;51.980;5.848;2023-01-01T03:53:07;15.00;99.90
42019;DHT22;27703;51.980;5.848;2023-01-01T03:55:37;15.00;99.90
42019;DHT22;27703;51.980;5.848;2023-01-01T03:58:12;14.90;99.90
42019;DHT22;27703;51.980;5.848;2023-01-01T04:04:03;14.90;99.90
42019;DHT22;27703;51.980;5.848;2023-01-01T04:06:31;14.90;99.90
42019;DHT22;27703;51.980;5.848;2023-01-01T04:08:57;14.80;99.90
42019;DHT22;27703;51.980;5.848;2023-01-01T04:11:27;14.90;99.90
42019;DHT22;27703;51.980;5.848;2023-01-01T04:14:11;14.80;99.90
42019;DHT22;27703;51.980;5.848;2023-01-01T04:16:36;14.80;99.90
42019;DHT22;27703;51.980;5.848;2023-01-01T04:19:02;14.80;99.90
42019;DHT22;27703;51.980;5.848;2023-01-01T04:21:31;14.80;99.90
42019;DHT22;27703;51.980;5.848;2023-01-01T04:23:57;14.80;99.90
42019;DHT22;27703;51.980;5.848;2023-01-01T04:26:23;14.80;99.90
42019;DHT22;27703;51.980;5.848;2023-01-01T04:28:48;14.80;99.90
42019;DHT22;27703;51.980;5.848;2023-01-01T04:31:14;14.80;99.90
42019;DHT22;27703;51.980;5.848;2023-01-01T04:33:39;14.90;99.90
42019;DHT22;27703;51.980;5.848;2023-01-01T04:36:07;14.90;99.90
42019;DHT22;27703;51.980;5.848;2023-01-01T04:38:33;14.90;99.90
42019;DHT22;27703;51.980;5.848;2023-01-01T04:41:01;14.90;99.90
42019;DHT22;27703;51.980;5.848;2023-01-01T04:43:27;14.90;99.90
42019;DHT22;27703;51.980;5.848;2023-01-01T04:46:00;14.90;99.90
42019;DHT22;27703;51.980;5.848;2023-01-01T04:48:27;14.90;99.90
42019;DHT22;27703;51.980;5.848;2023-01-01T04:50:58;14.90;99.90
42019;DHT22;27703;51.980;5.848;2023-01-01T04:53:25;14.90;99.90
42019;DHT22;27703;51.980;5.848;2023-01-01T04:55:52;14.90;99.90
42019;DHT22;27703;51.980;5.848;2023-01-01T04:58:18;14.90;99.90
42019;DHT22;27703;51.980;5.848;2023-01-01T05:00:48;14.90;99.90
42019;DHT22;27703;51.980;5.848;2023-01-01T05:03:14;14.80;99.90
42019;DHT22;27703;51.980;5.848;2023-01-01T05:05:40;14.80;99.90
42019;DHT22;27703;51.980;5.848;2023-01-01T05:08:05;14.80;99.90
42019;DHT22;27703;51.980;5.848;2023-01-01T05:10:31;14.80;99.90
42019;DHT22;27703;51.980;5.848;2023-01-01T05:12:56;14.70;99.90
42019;DHT22;27703;51.980;5.848;2023-01-01T05:15:22;14.70;99.90
42019;DHT22;27703;51.980;5.848;2023-01-01T05:17:47;14.70;99.90
42019;DHT22;27703;51.980;5.848;2023-01-01T05:20:13;14.70;99.90
42019;DHT22;27703;51.980;5.848;2023-01-01T05:22:38;14.60;99.90
42019;DHT22;27703;51.980;5.848;2023-01-01T05:25:04;14.60;99.90
42019;DHT22;27703;51.980;5.848;2023-01-01T05:27:30;14.60;99.90
42019;DHT22;27703;51.980;5.848;2023-01-01T05:29:55;14.50;99.90
42019;DHT22;27703;51.980;5.848;2023-01-01T05:32:21;14.50;99.90
42019;DHT22;27703;51.980;5.848;2023-01-01T05:34:47;14.40;99.90
42019;DHT22;27703;51.980;5.848;2023-01-01T05:37:12;14.40;99.90
42019;DHT22;27703;51.980;5.848;2023-01-01T05:39:38;14.40;99.90
42019;DHT22;27703;51.980;5.848;2023-01-01T05:42:03;14.40;99.90
42019;DHT22;27703;51.980;5.848;2023-01-01T05:44:29;14.40;99.90
42019;DHT22;27703;51.980;5.848;2023-01-01T05:46:54;14.30;99.90
42019;DHT22;27703;51.980;5.848;2023-01-01T05:49:20;14.40;99.90
42019;DHT22;27703;51.980;5.848;2023-01-01T05:51:45;14.40;99.90
42019;DHT22;27703;51.980;5.848;2023-01-01T05:54:11;14.50;99.90
42019;DHT22;27703;51.980;5.848;2023-01-01T05:56:37;14.50;99.90
42019;DHT22;27703;51.980;5.848;2023-01-01T05:59:03;14.50;99.90
42019;DHT22;27703;51.980;5.848;2023-01-01T06:01:30;14.40;99.90
42019;DHT22;27703;51.980;5.848;2023-01-01T06:03:57;14.40;99.90
42019;DHT22;27703;51.980;5.848;2023-01-01T06:06:25;14.40;99.90
42019;DHT22;27703;51.980;5.848;2023-01-01T06:08:55;14.30;99.90
42019;DHT22;27703;51.980;5.848;2023-01-01T06:11:21;14.30;99.90
42019;DHT22;27703;51.980;5.848;2023-01-01T06:13:50;14.30;99.90
42019;DHT22;27703;51.980;5.848;2023-01-01T06:16:16;14.30;99.90
42019;DHT22;27703;51.980;5.848;2023-01-01T06:18:41;14.20;99.90
42019;DHT22;27703;51.980;5.848;2023-01-01T06:21:12;14.30;99.90
42019;DHT22;27703;51.980;5.848;2023-01-01T06:23:38;14.30;99.90
42019;DHT22;27703;51.980;5.848;2023-01-01T06:28:30;14.30;99.90
42019;DHT22;27703;51.980;5.848;2023-01-01T06:30:59;14.20;99.90
42019;DHT22;27703;51.980;5.848;2023-01-01T06:33:25;14.10;99.90
42019;DHT22;27703;51.980;5.848;2023-01-01T06:35:51;14.10;99.90
42019;DHT22;27703;51.980;5.848;2023-01-01T06:38:17;14.00;99.90
42019;DHT22;27703;51.980;5.848;2023-01-01T06:40:42;14.00;99.90
42019;DHT22;27703;51.980;5.848;2023-01-01T06:43:08;13.90;99.90
42019;DHT22;27703;51.980;5.848;2023-01-01T06:45:33;13.90;99.90
42019;DHT22;27703;51.980;5.848;2023-01-01T06:47:59;13.90;99.90
42019;DHT22;27703;51.980;5.848;2023-01-01T06:50:24;13.80;99.90
42019;DHT22;27703;51.980;5.848;2023-01-01T06:52:50;13.80;99.90
42019;DHT22;27703;51.980;5.848;2023-01-01T06:55:15;13.80;99.90
42019;DHT22;27703;51.980;5.848;2023-01-01T06:57:41;13.80;99.90
42019;DHT22;27703;51.980;5.848;2023-01-01T07:00:07;13.80;99.90
42019;DHT22;27703;51.980;5.848;2023-01-01T07:02:32;13.80;99.90
42019;DHT22;27703;51.980;5.848;2023-01-01T07:04:58;13.70;99.90
42019;DHT22;27703;51.980;5.848;2023-01-01T07:07:23;13.70;99.90
42019;DHT22;27703;51.980;5.848;2023-01-01T07:09:49;13.60;99.90
42019;DHT22;27703;51.980;5.848;2023-01-01T07:12:14;13.50;99.90
42019;DHT22;27703;51.980;5.848;2023-01-01T07:14:40;13.50;99.90
42019;DHT22;27703;51.980;5.848;2023-01-01T07:17:05;13.40;99.90
42019;DHT22;27703;51.980;5.848;2023-01-01T07:19:31;13.30;99.90
42019;DHT22;27703;51.980;5.848;2023-01-01T07:21:57;13.20;99.90
42019;DHT22;27703;51.980;5.848;2023-01-01T07:24:22;13.00;99.90
42019;DHT22;27703;51.980;5.848;2023-01-01T07:26:48;13.00;99.90
42019;DHT22;27703;51.980;5.848;2023-01-01T07:29:13;12.90;99.90
42019;DHT22;27703;51.980;5.848;2023-01-01T07:31:41;12.80;99.90
42019;DHT22;27703;51.980;5.848;2023-01-01T07:34:10;12.70;99.90
42019;DHT22;27703;51.980;5.848;2023-01-01T07:36:36;12.60;99.90
42019;DHT22;27703;51.980;5.848;2023-01-01T07:39:02;12.60;99.90
42019;DHT22;27703;51.980;5.848;2023-01-01T07:41:28;12.50;99.90
42019;DHT22;27703;51.980;5.848;2023-01-01T07:43:53;12.40;99.90
42019;DHT22;27703;51.980;5.848;2023-01-01T07:46:19;12.30;99.90
42019;DHT22;27703;51.980;5.848;2023-01-01T07:48:45;12.30;99.90
42019;DHT22;27703;51.980;5.848;2023-01-01T07:51:10;12.20;99.90
42019;DHT22;27703;51.980;5.848;2023-01-01T07:53:36;12.20;99.90
42019;DHT22;27703;51.980;5.848;2023-01-01T07:56:01;12.20;99.90
42019;DHT22;27703;51.980;5.848;2023-01-01T07:58:27;12.20;99.90
42019;DHT22;27703;51.980;5.848;2023-01-01T08:00:53;12.10;99.90
42019;DHT22;27703;51.980;5.848;2023-01-01T08:03:18;12.10;99.90
42019;DHT22;27703;51.980;5.848;2023-01-01T08:05:44;12.10;99.90
42019;DHT22;27703;51.980;5.848;2023-01-01T08:08:10;12.00;99.90
42019;DHT22;27703;51.980;5.848;2023-01-01T08:10:35;12.10;99.90
42019;DHT22;27703;51.980;5.848;2023-01-01T08:13:03;12.10;99.90
42019;DHT22;27703;51.980;5.848;2023-01-01T08:15:29;12.10;99.90
42019;DHT22;27703;51.980;5.848;2023-01-01T08:17:59;12.10;99.90
42019;DHT22;27703;51.980;5.848;2023-01-01T08:20:26;12.20;99.90
42019;DHT22;27703;51.980;5.848;2023-01-01T08:22:52;12.10;99.90
42019;DHT22;27703;51.980;5.848;2023-01-01T08:25:17;12.10;99.90
42019;DHT22;27703;51.980;5.848;2023-01-01T08:27:43;12.10;99.90
42019;DHT22;27703;51.980;5.848;2023-01-01T08:30:11;12.10;99.90
42019;DHT22;27703;51.980;5.848;2023-01-01T08:32:37;12.10;99.90
42019;DHT22;27703;51.980;5.848;2023-01-01T08:35:03;12.10;99.90
42019;DHT22;27703;51.980;5.848;2023-01-01T08:37:29;12.10;99.90
42019;DHT22;27703;51.980;5.848;2023-01-01T08:39:54;12.10;99.90
42019;DHT22;27703;51.980;5.848;2023-01-01T08:42:20;12.10;99.90
42019;DHT22;27703;51.980;5.848;2023-01-01T08:44:46;12.10;99.90
42019;DHT22;27703;51.980;5.848;2023-01-01T08:47:25;12.10;99.90
42019;DHT22;27703;51.980;5.848;2023-01-01T08:49:51;12.10;99.90
42019;DHT22;27703;51.980;5.848;2023-01-01T08:52:17;12.10;99.90
42019;DHT22;27703;51.980;5.848;2023-01-01T08:54:43;12.20;99.90
42019;DHT22;27703;51.980;5.848;2023-01-01T08:57:09;12.10;99.90
42019;DHT22;27703;51.980;5.848;2023-01-01T08:59:35;12.20;99.90
42019;DHT22;27703;51.980;5.848;2023-01-01T09:02:01;12.20;99.90
42019;DHT22;27703;51.980;5.848;2023-01-01T09:04:26;12.20;99.90
42019;DHT22;27703;51.980;5.848;2023-01-01T09:06:52;12.20;99.90
42019;DHT22;27703;51.980;5.848;2023-01-01T09:09:17;12.10;99.90
42019;DHT22;27703;51.980;5.848;2023-01-01T09:11:54;12.20;99.90
42019;DHT22;27703;51.980;5.848;2023-01-01T09:14:21;12.20;99.90
42019;DHT22;27703;51.980;5.848;2023-01-01T09:16:47;12.20;99.90
42019;DHT22;27703;51.980;5.848;2023-01-01T09:19:12;12.20;99.90
42019;DHT22;27703;51.980;5.848;2023-01-01T09:21:38;12.20;99.90
42019;DHT22;27703;51.980;5.848;2023-01-01T09:24:04;12.20;99.90
42019;DHT22;27703;51.980;5.848;2023-01-01T09:26:30;12.20;99.90
42019;DHT22;27703;51.980;5.848;2023-01-01T09:28:56;12.20;99.90
42019;DHT22;27703;51.980;5.848;2023-01-01T09:31:22;12.30;99.90
42019;DHT22;27703;51.980;5.848;2023-01-01T09:33:47;12.20;99.90
42019;DHT22;27703;51.980;5.848;2023-01-01T09:38:50;12.20;99.90
42019;DHT22;27703;51.980;5.848;2023-01-01T09:46:15;12.10;99.90
42019;DHT22;27703;51.980;5.848;2023-01-01T09:48:53;12.20;99.90
42019;DHT22;27703;51.980;5.848;2023-01-01T09:51:21;12.20;99.90
42019;DHT22;27703;51.980;5.848;2023-01-01T09:54:10;12.20;99.90
42019;DHT22;27703;51.980;5.848;2023-01-01T09:56:38;12.20;99.90
42019;DHT22;27703;51.980;5.848;2023-01-01T09:59:08;12.30;99.90
42019;DHT22;27703;51.980;5.848;2023-01-01T10:07:18;12.40;99.90
42019;DHT22;27703;51.980;5.848;2023-01-01T10:10:30;12.40;99.90
42019;DHT22;27703;51.980;5.848;2023-01-01T10:15:31;12.40;99.90
42019;DHT22;27703;51.980;5.848;2023-01-01T10:17:59;12.40;99.90
42019;DHT22;27703;51.980;5.848;2023-01-01T10:20:32;12.40;99.90
42019;DHT22;27703;51.980;5.848;2023-01-01T10:23:14;12.40;99.90
42019;DHT22;27703;51.980;5.848;2023-01-01T10:25:42;12.40;99.90
42019;DHT22;27703;51.980;5.848;2023-01-01T10:28:18;12.40;99.90
42019;DHT22;27703;51.980;5.848;2023-01-01T10:30:45;12.30;99.90
42019;DHT22;27703;51.980;5.848;2023-01-01T10:33:13;12.30;99.90
42019;DHT22;27703;51.980;5.848;2023-01-01T10:35:42;12.20;99.90
42019;DHT22;27703;51.980;5.848;2023-01-01T10:38:16;12.20;99.90
42019;DHT22;27703;51.980;5.848;2023-01-01T10:40:43;12.20;99.90
42019;DHT22;27703;51.980;5.848;2023-01-01T10:43:10;12.10;99.90
42019;DHT22;27703;51.980;5.848;2023-01-01T10:45:42;12.10;99.90
42019;DHT22;27703;51.980;5.848;2023-01-01T10:48:26;12.10;99.90
42019;DHT22;27703;51.980;5.848;2023-01-01T10:51:03;12.00;99.90
42019;DHT22;27703;51.980;5.848;2023-01-01T10:53:48;12.00;99.90
42019;DHT22;27703;51.980;5.848;2023-01-01T10:56:16;11.90;99.90
42019;DHT22;27703;51.980;5.848;2023-01-01T10:58:51;11.90;99.90
42019;DHT22;27703;51.980;5.848;2023-01-01T11:01:21;11.90;99.90
42019;DHT22;27703;51.980;5.848;2023-01-01T11:04:02;11.80;99.90
42019;DHT22;27703;51.980;5.848;2023-01-01T11:06:33;11.80;99.90
42019;DHT22;27703;51.980;5.848;2023-01-01T11:09:01;11.80;99.90
42019;DHT22;27703;51.980;5.848;2023-01-01T11:11:28;11.70;99.90
42019;DHT22;27703;51.980;5.848;2023-01-01T11:13:58;11.80;99.90
42019;DHT22;27703;51.980;5.848;2023-01-01T11:16:26;11.80;99.90
42019;DHT22;27703;51.980;5.848;2023-01-01T11:19:03;11.80;99.90
42019;DHT22;27703;51.980;5.848;2023-01-01T11:21:29;11.90;99.90
42019;DHT22;27703;51.980;5.848;2023-01-01T11:24:27;11.90;99.90
42019;DHT22;27703;51.980;5.848;2023-01-01T11:27:17;11.90;99.90
42019;DHT22;27703;51.980;5.848;2023-01-01T11:29:45;11.90;99.90
42019;DHT22;27703;51.980;5.848;2023-01-01T11:32:19;11.90;99.90
42019;DHT22;27703;51.980;5.848;2023-01-01T11:34:48;12.00;99.90
42019;DHT22;27703;51.980;5.848;2023-01-01T11:39:55;12.00;99.90
42019;DHT22;27703;51.980;5.848;2023-01-01T11:42:24;12.00;99.90
42019;DHT22;27703;51.980;5.848;2023-01-01T11:44:54;12.00;99.90
42019;DHT22;27703;51.980;5.848;2023-01-01T11:47:36;12.10;99.90
42019;DHT22;27703;51.980;5.848;2023-01-01T11:50:28;12.10;99.90
42019;DHT22;27703;51.980;5.848;2023-01-01T11:52:56;12.20;99.90
42019;DHT22;27703;51.980;5.848;2023-01-01T11:55:29;12.20;99.90
42019;DHT22;27703;51.980;5.848;2023-01-01T12:00:43;12.30;99.90
42019;DHT22;27703;51.980;5.848;2023-01-01T12:03:23;12.30;99.90
42019;DHT22;27703;51.980;5.848;2023-01-01T12:06:10;12.30;99.90
42019;DHT22;27703;51.980;5.848;2023-01-01T12:11:24;12.40;99.90
42019;DHT22;27703;51.980;5.848;2023-01-01T12:14:04;12.50;99.90
42019;DHT22;27703;51.980;5.848;2023-01-01T12:19:27;12.50;99.90
42019;DHT22;27703;51.980;5.848;2023-01-01T12:21:57;12.50;99.90
42019;DHT22;27703;51.980;5.848;2023-01-01T12:24:32;12.60;99.90
42019;DHT22;27703;51.980;5.848;2023-01-01T12:27:15;12.60;99.90
42019;DHT22;27703;51.980;5.848;2023-01-01T12:30:03;12.60;99.90
42019;DHT22;27703;51.980;5.848;2023-01-01T12:38:31;12.70;99.90
42019;DHT22;27703;51.980;5.848;2023-01-01T12:40:37;12.80;99.90
42019;DHT22;27703;51.980;5.848;2023-01-01T12:43:10;13.00;99.90
42019;DHT22;27703;51.980;5.848;2023-01-01T12:59:27;13.40;99.90
42019;DHT22;27703;51.980;5.848;2023-01-01T13:01:57;13.40;99.90
42019;DHT22;27703;51.980;5.848;2023-01-01T13:04:24;13.40;99.90
42019;DHT22;27703;51.980;5.848;2023-01-01T13:06:59;13.40;99.90
42019;DHT22;27703;51.980;5.848;2023-01-01T13:09:36;13.40;99.90
42019;DHT22;27703;51.980;5.848;2023-01-01T13:14:42;13.30;99.90
42019;DHT22;27703;51.980;5.848;2023-01-01T13:17:25;13.30;99.90
42019;DHT22;27703;51.980;5.848;2023-01-01T13:33:28;13.20;99.90
42019;DHT22;27703;51.980;5.848;2023-01-01T13:41:43;13.10;99.90
42019;DHT22;27703;51.980;5.848;2023-01-01T13:44:11;13.10;99.90
42019;DHT22;27703;51.980;5.848;2023-01-01T13:52:32;13.10;99.90
42019;DHT22;27703;51.980;5.848;2023-01-01T14:03:46;13.00;99.90
42019;DHT22;27703;51.980;5.848;2023-01-01T14:06:21;13.00;99.90
42019;DHT22;27703;51.980;5.848;2023-01-01T14:09:21;13.00;99.90
42019;DHT22;27703;51.980;5.848;2023-01-01T14:11:46;13.00;99.90
42019;DHT22;27703;51.980;5.848;2023-01-01T14:16:59;13.10;99.90
42019;DHT22;27703;51.980;5.848;2023-01-01T14:19:26;13.10;99.90
42019;DHT22;27703;51.980;5.848;2023-01-01T14:21:52;13.00;99.90
42019;DHT22;27703;51.980;5.848;2023-01-01T14:24:20;13.00;99.90
42019;DHT22;27703;51.980;5.848;2023-01-01T14:26:47;13.00;99.90
42019;DHT22;27703;51.980;5.848;2023-01-01T14:29:26;13.00;99.90
42019;DHT22;27703;51.980;5.848;2023-01-01T14:31:52;13.00;99.90
42019;DHT22;27703;51.980;5.848;2023-01-01T14:34:29;13.00;99.90
42019;DHT22;27703;51.980;5.848;2023-01-01T14:36:57;12.90;99.90
42019;DHT22;27703;51.980;5.848;2023-01-01T14:41:50;12.90;99.90
42019;DHT22;27703;51.980;5.848;2023-01-01T14:44:18;12.90;99.90
42019;DHT22;27703;51.980;5.848;2023-01-01T14:46:48;12.90;99.90
42019;DHT22;27703;51.980;5.848;2023-01-01T14:49:21;12.90;99.90
42019;DHT22;27703;51.980;5.848;2023-01-01T14:52:05;12.90;99.90
42019;DHT22;27703;51.980;5.848;2023-01-01T14:54:35;12.90;99.90
42019;DHT22;27703;51.980;5.848;2023-01-01T14:57:01;12.90;99.90
42019;DHT22;27703;51.980;5.848;2023-01-01T14:59:31;12.90;99.90
42019;DHT22;27703;51.980;5.848;2023-01-01T15:01:58;12.80;99.90
42019;DHT22;27703;51.980;5.848;2023-01-01T15:04:25;12.80;99.90
42019;DHT22;27703;51.980;5.848;2023-01-01T15:06:55;12.80;99.90
42019;DHT22;27703;51.980;5.848;2023-01-01T15:09:21;12.80;99.90
42019;DHT22;27703;51.980;5.848;2023-01-01T15:11:50;12.80;99.90
42019;DHT22;27703;51.980;5.848;2023-01-01T15:14:36;12.80;99.90
42019;DHT22;27703;51.980;5.848;2023-01-01T15:17:07;12.90;99.90
42019;DHT22;27703;51.980;5.848;2023-01-01T15:19:33;12.80;99.90
42019;DHT22;27703;51.980;5.848;2023-01-01T15:22:01;12.80;99.90
42019;DHT22;27703;51.980;5.848;2023-01-01T15:24:27;12.80;99.90
42019;DHT22;27703;51.980;5.848;2023-01-01T15:26:59;12.80;99.90
42019;DHT22;27703;51.980;5.848;2023-01-01T15:29:31;12.80;99.90
42019;DHT22;27703;51.980;5.848;2023-01-01T15:31:59;12.70;99.90
42019;DHT22;27703;51.980;5.848;2023-01-01T15:34:34;12.70;99.90
42019;DHT22;27703;51.980;5.848;2023-01-01T15:37:09;12.70;99.90
42019;DHT22;27703;51.980;5.848;2023-01-01T15:40:00;12.80;99.90
42019;DHT22;27703;51.980;5.848;2023-01-01T15:42:37;12.70;99.90
42019;DHT22;27703;51.980;5.848;2023-01-01T15:47:51;12.70;99.90
42019;DHT22;27703;51.980;5.848;2023-01-01T15:52:47;12.70;99.90
42019;DHT22;27703;51.980;5.848;2023-01-01T15:55:16;12.70;99.90
42019;DHT22;27703;51.980;5.848;2023-01-01T15:57:49;12.70;99.90
42019;DHT22;27703;51.980;5.848;2023-01-01T16:00:27;12.70;99.90
42019;DHT22;27703;51.980;5.848;2023-01-01T16:02:57;12.70;99.90
42019;DHT22;27703;51.980;5.848;2023-01-01T16:05:25;12.70;99.90
42019;DHT22;27703;51.980;5.848;2023-01-01T16:07:59;12.60;99.90
42019;DHT22;27703;51.980;5.848;2023-01-01T16:10:26;12.60;99.90
42019;DHT22;27703;51.980;5.848;2023-01-01T16:12:51;12.60;99.90
42019;DHT22;27703;51.980;5.848;2023-01-01T16:15:17;12.60;99.90
42019;DHT22;27703;51.980;5.848;2023-01-01T16:17:43;12.60;99.90
42019;DHT22;27703;51.980;5.848;2023-01-01T16:20:17;12.60;99.90
42019;DHT22;27703;51.980;5.848;2023-01-01T16:22:43;12.50;99.90
42019;DHT22;27703;51.980;5.848;2023-01-01T16:27:38;12.50;99.90
42019;DHT22;27703;51.980;5.848;2023-01-01T16:30:04;12.50;99.90
42019;DHT22;27703;51.980;5.848;2023-01-01T16:32:30;12.50;99.90
42019;DHT22;27703;51.980;5.848;2023-01-01T16:34:55;12.50;99.90
42019;DHT22;27703;51.980;5.848;2023-01-01T16:37:21;12.50;99.90
42019;DHT22;27703;51.980;5.848;2023-01-01T16:39:47;12.60;99.90
42019;DHT22;27703;51.980;5.848;2023-01-01T16:42:13;12.50;99.90
42019;DHT22;27703;51.980;5.848;2023-01-01T16:44:42;12.60;99.90
42019;DHT22;27703;51.980;5.848;2023-01-01T16:47:09;12.60;99.90
42019;DHT22;27703;51.980;5.848;2023-01-01T16:49:34;12.50;99.90
42019;DHT22;27703;51.980;5.848;2023-01-01T16:52:00;12.60;99.90
42019;DHT22;27703;51.980;5.848;2023-01-01T16:54:26;12.60;99.90
42019;DHT22;27703;51.980;5.848;2023-01-01T16:56:51;12.60;99.90
42019;DHT22;27703;51.980;5.848;2023-01-01T16:59:17;12.60;99.90
42019;DHT22;27703;51.980;5.848;2023-01-01T17:01:42;12.60;99.90
42019;DHT22;27703;51.980;5.848;2023-01-01T17:04:10;12.50;99.90
42019;DHT22;27703;51.980;5.848;2023-01-01T17:06:37;12.50;99.90
42019;DHT22;27703;51.980;5.848;2023-01-01T17:09:02;12.50;99.90
42019;DHT22;27703;51.980;5.848;2023-01-01T17:11:28;12.50;99.90
42019;DHT22;27703;51.980;5.848;2023-01-01T17:13:54;12.50;99.90
42019;DHT22;27703;51.980;5.848;2023-01-01T17:16:19;12.40;99.90
42019;DHT22;27703;51.980;5.848;2023-01-01T17:18:51;12.40;99.90
42019;DHT22;27703;51.980;5.848;2023-01-01T17:21:17;12.50;99.90
42019;DHT22;27703;51.980;5.848;2023-01-01T17:23:44;12.50;99.90
42019;DHT22;27703;51.980;5.848;2023-01-01T17:26:15;12.40;99.90
42019;DHT22;27703;51.980;5.848;2023-01-01T17:28:43;12.40;99.90
42019;DHT22;27703;51.980;5.848;2023-01-01T17:31:11;12.40;99.90
42019;DHT22;27703;51.980;5.848;2023-01-01T17:33:38;12.40;99.90
42019;DHT22;27703;51.980;5.848;2023-01-01T17:36:05;12.40;99.90
42019;DHT22;27703;51.980;5.848;2023-01-01T17:38:31;12.40;99.90
42019;DHT22;27703;51.980;5.848;2023-01-01T17:41:10;12.40;99.90
42019;DHT22;27703;51.980;5.848;2023-01-01T17:43:38;12.40;99.90
42019;DHT22;27703;51.980;5.848;2023-01-01T17:46:05;12.40;99.90
42019;DHT22;27703;51.980;5.848;2023-01-01T17:48:31;12.40;99.90
42019;DHT22;27703;51.980;5.848;2023-01-01T17:50:57;12.40;99.90
42019;DHT22;27703;51.980;5.848;2023-01-01T17:53:23;12.40;99.90
42019;DHT22;27703;51.980;5.848;2023-01-01T17:55:48;12.40;99.90
42019;DHT22;27703;51.980;5.848;2023-01-01T17:58:14;12.30;99.90